KLM457 LATI-LGSA
Flight info
| Callsign | KLM457 |
|---|---|
| Flight time | 0h 59m |
| Altitude | 37000 |
| Route | ELBAK DCT DIMIS UL604 TRL UJ65 SOKRI |
| Aircraft | B763/H-SDE3FGHIM3RWXY/LB1 |
Departure
| Time | 2026-05-08 18:36 |
|---|---|
| Airport | Tirana International Airport Mother Teresa (LATI) |
Arrival
| Time | 2026-05-08 19:36 |
|---|---|
| Airport | Chania International Airport (LGSA) |
| Time | Latitude | Longitude | Altitude | Speed | Heading |
|---|---|---|---|---|---|
| 2026-05-08 18:33 | 41.42670 | 19.71502 | 123 ft | 0 kts | 173° |
| 2026-05-08 18:35 | 41.42659 | 19.71519 | 123 ft | 8 kts | 108° |
| 2026-05-08 18:35 | 41.42676 | 19.71684 | 123 ft | 30 kts | 85° |
| 2026-05-08 18:35 | 41.42636 | 19.71898 | 123 ft | 20 kts | 162° |
| 2026-05-08 18:36 | 41.42402 | 19.71938 | 123 ft | 70 kts | 174° |
| 2026-05-08 18:36 | 41.41573 | 19.72047 | 123 ft | 166 kts | 174° |
| 2026-05-08 18:36 | 41.40226 | 19.72219 | 773 ft | 210 kts | 174° |
| 2026-05-08 18:36 | 41.38690 | 19.72440 | 2044 ft | 234 kts | 173° |
| 2026-05-08 18:37 | 41.37008 | 19.72664 | 3549 ft | 250 kts | 174° |
| 2026-05-08 18:37 | 41.35231 | 19.72887 | 5143 ft | 263 kts | 174° |
| 2026-05-08 18:37 | 41.33377 | 19.73128 | 6757 ft | 271 kts | 174° |
| 2026-05-08 18:37 | 41.31475 | 19.73381 | 8332 ft | 279 kts | 174° |
| 2026-05-08 18:38 | 41.29529 | 19.73641 | 9443 ft | 288 kts | 174° |
| 2026-05-08 18:38 | 41.27526 | 19.73910 | 9862 ft | 289 kts | 174° |
| 2026-05-08 18:38 | 41.25609 | 19.74669 | 9970 ft | 288 kts | 153° |
| 2026-05-08 18:38 | 41.23963 | 19.76192 | 10064 ft | 291 kts | 143° |
| 2026-05-08 18:39 | 41.22325 | 19.77886 | 10209 ft | 312 kts | 145° |
| 2026-05-08 18:39 | 41.20637 | 19.79432 | 11260 ft | 325 kts | 149° |
| 2026-05-08 18:39 | 41.18687 | 19.81085 | 12379 ft | 340 kts | 151° |
| 2026-05-08 18:39 | 41.16641 | 19.82773 | 13495 ft | 353 kts | 151° |
| 2026-05-08 18:40 | 41.14516 | 19.84533 | 14549 ft | 366 kts | 150° |
| 2026-05-08 18:40 | 41.12328 | 19.86365 | 15525 ft | 379 kts | 150° |
| 2026-05-08 18:40 | 41.10063 | 19.88274 | 16419 ft | 392 kts | 150° |
| 2026-05-08 18:40 | 41.07726 | 19.90244 | 17238 ft | 405 kts | 150° |
| 2026-05-08 18:41 | 41.05334 | 19.92258 | 17991 ft | 419 kts | 150° |
| 2026-05-08 18:41 | 41.02836 | 19.94357 | 18756 ft | 430 kts | 150° |
| 2026-05-08 18:41 | 41.00282 | 19.96501 | 19606 ft | 438 kts | 150° |
| 2026-05-08 18:41 | 40.97691 | 19.98675 | 20464 ft | 444 kts | 150° |
| 2026-05-08 18:42 | 40.95061 | 20.00878 | 21294 ft | 450 kts | 150° |
| 2026-05-08 18:42 | 40.92391 | 20.03111 | 22101 ft | 455 kts | 150° |
| 2026-05-08 18:42 | 40.89700 | 20.05361 | 22854 ft | 460 kts | 150° |
| 2026-05-08 18:42 | 40.86974 | 20.07634 | 23552 ft | 466 kts | 150° |
| 2026-05-08 18:43 | 40.84148 | 20.09779 | 24192 ft | 470 kts | 154° |
| 2026-05-08 18:43 | 40.81209 | 20.11748 | 24820 ft | 475 kts | 157° |
| 2026-05-08 18:43 | 40.78210 | 20.13646 | 25418 ft | 480 kts | 158° |
| 2026-05-08 18:43 | 40.75176 | 20.15550 | 25980 ft | 485 kts | 158° |
| 2026-05-08 18:44 | 40.72154 | 20.17470 | 26512 ft | 491 kts | 157° |
| 2026-05-08 18:44 | 40.69069 | 20.19459 | 27016 ft | 496 kts | 157° |
| 2026-05-08 18:44 | 40.65948 | 20.21492 | 27507 ft | 502 kts | 157° |
| 2026-05-08 18:44 | 40.62796 | 20.23552 | 27960 ft | 507 kts | 157° |
| 2026-05-08 18:45 | 40.59612 | 20.25636 | 28410 ft | 513 kts | 158° |
| 2026-05-08 18:45 | 40.56398 | 20.27735 | 28892 ft | 516 kts | 158° |
| 2026-05-08 18:45 | 40.53190 | 20.29828 | 29546 ft | 515 kts | 158° |
| 2026-05-08 18:45 | 40.49975 | 20.31921 | 30127 ft | 515 kts | 158° |
| 2026-05-08 18:46 | 40.46767 | 20.34005 | 30682 ft | 515 kts | 158° |
| 2026-05-08 18:46 | 40.43545 | 20.36093 | 31227 ft | 515 kts | 158° |
| 2026-05-08 18:46 | 40.40328 | 20.38176 | 31783 ft | 515 kts | 159° |
| 2026-05-08 18:46 | 40.37119 | 20.40251 | 32322 ft | 514 kts | 159° |
| 2026-05-08 18:47 | 40.33913 | 20.42324 | 32841 ft | 513 kts | 159° |
| 2026-05-08 18:47 | 40.30707 | 20.44395 | 33350 ft | 512 kts | 159° |
| 2026-05-08 18:47 | 40.27512 | 20.46456 | 33861 ft | 511 kts | 159° |
| 2026-05-08 18:47 | 40.24322 | 20.48511 | 34327 ft | 510 kts | 159° |
| 2026-05-08 18:48 | 40.21172 | 20.50537 | 34789 ft | 509 kts | 159° |
| 2026-05-08 18:48 | 40.18003 | 20.52574 | 35256 ft | 507 kts | 159° |
| 2026-05-08 18:48 | 40.14834 | 20.54609 | 35704 ft | 506 kts | 159° |
| 2026-05-08 18:48 | 40.11688 | 20.56627 | 36139 ft | 505 kts | 159° |
| 2026-05-08 18:49 | 40.08531 | 20.58651 | 36557 ft | 503 kts | 159° |
| 2026-05-08 18:49 | 40.05389 | 20.60639 | 36954 ft | 502 kts | 160° |
| 2026-05-08 18:49 | 40.02228 | 20.62592 | 37135 ft | 502 kts | 160° |
| 2026-05-08 18:49 | 39.99059 | 20.64521 | 37111 ft | 499 kts | 160° |
| 2026-05-08 18:50 | 39.92753 | 20.68335 | 37083 ft | 499 kts | 161° |
| 2026-05-08 18:50 | 39.86485 | 20.72131 | 37087 ft | 499 kts | 161° |
| 2026-05-08 18:51 | 39.80198 | 20.75950 | 37091 ft | 498 kts | 161° |
| 2026-05-08 18:51 | 39.73917 | 20.79760 | 37094 ft | 497 kts | 161° |
| 2026-05-08 18:52 | 39.67664 | 20.83641 | 37095 ft | 498 kts | 159° |
| 2026-05-08 18:52 | 39.61516 | 20.87835 | 37097 ft | 499 kts | 157° |
| 2026-05-08 18:53 | 39.55433 | 20.92077 | 37096 ft | 499 kts | 157° |
| 2026-05-08 18:53 | 39.49305 | 20.96291 | 37095 ft | 498 kts | 158° |
| 2026-05-08 18:54 | 39.43180 | 21.00456 | 37093 ft | 498 kts | 158° |
| 2026-05-08 18:54 | 39.37041 | 21.04619 | 37092 ft | 497 kts | 158° |
| 2026-05-08 18:55 | 39.27873 | 21.10828 | 37089 ft | 497 kts | 158° |
| 2026-05-08 18:56 | 39.21706 | 21.14997 | 37086 ft | 497 kts | 158° |
| 2026-05-08 18:56 | 39.15617 | 21.19105 | 37083 ft | 497 kts | 158° |
| 2026-05-08 18:57 | 39.09491 | 21.23230 | 37081 ft | 497 kts | 158° |
| 2026-05-08 18:57 | 39.03349 | 21.27356 | 37079 ft | 497 kts | 158° |
| 2026-05-08 18:58 | 38.97216 | 21.31469 | 37077 ft | 497 kts | 158° |
| 2026-05-08 18:58 | 38.91067 | 21.35584 | 37076 ft | 497 kts | 158° |
| 2026-05-08 18:59 | 38.84924 | 21.39688 | 37073 ft | 497 kts | 158° |
| 2026-05-08 18:59 | 38.78789 | 21.43778 | 37074 ft | 497 kts | 158° |
| 2026-05-08 19:00 | 38.73682 | 21.47176 | 37086 ft | 497 kts | 158° |
| 2026-05-08 19:00 | 38.66538 | 21.51921 | 37102 ft | 497 kts | 158° |
| 2026-05-08 19:01 | 38.60399 | 21.55992 | 37102 ft | 497 kts | 159° |
| 2026-05-08 19:01 | 38.54243 | 21.60066 | 37098 ft | 498 kts | 159° |
| 2026-05-08 19:02 | 38.48091 | 21.64129 | 37098 ft | 497 kts | 159° |
| 2026-05-08 19:02 | 38.41940 | 21.68183 | 37098 ft | 498 kts | 159° |
| 2026-05-08 19:03 | 38.35782 | 21.72234 | 37098 ft | 497 kts | 159° |
| 2026-05-08 19:03 | 38.29632 | 21.76273 | 37098 ft | 498 kts | 159° |
| 2026-05-08 19:04 | 38.23467 | 21.80312 | 37098 ft | 498 kts | 159° |
| 2026-05-08 19:04 | 38.17295 | 21.84350 | 37098 ft | 498 kts | 159° |
| 2026-05-08 19:05 | 38.11134 | 21.88372 | 37099 ft | 498 kts | 159° |
| 2026-05-08 19:05 | 38.04959 | 21.92395 | 37099 ft | 498 kts | 159° |
| 2026-05-08 19:06 | 37.98793 | 21.96406 | 37100 ft | 498 kts | 159° |
| 2026-05-08 19:06 | 37.92621 | 22.00412 | 37100 ft | 498 kts | 159° |
| 2026-05-08 19:07 | 37.86449 | 22.04411 | 37109 ft | 498 kts | 159° |
| 2026-05-08 19:07 | 37.80311 | 22.08381 | 37116 ft | 498 kts | 159° |
| 2026-05-08 19:08 | 37.74134 | 22.12367 | 37119 ft | 498 kts | 159° |
| 2026-05-08 19:08 | 37.67960 | 22.16345 | 37122 ft | 497 kts | 159° |
| 2026-05-08 19:09 | 37.61805 | 22.20304 | 37124 ft | 496 kts | 159° |
| 2026-05-08 19:09 | 37.55646 | 22.24256 | 37126 ft | 496 kts | 159° |
| 2026-05-08 19:10 | 37.49535 | 22.28171 | 37129 ft | 494 kts | 159° |
| 2026-05-08 19:10 | 37.43384 | 22.32105 | 37130 ft | 494 kts | 159° |
| 2026-05-08 19:11 | 37.37522 | 22.36563 | 37130 ft | 498 kts | 149° |
| 2026-05-08 19:11 | 37.32076 | 22.42024 | 37134 ft | 503 kts | 145° |
| 2026-05-08 19:12 | 37.26720 | 22.47678 | 37135 ft | 503 kts | 145° |
| 2026-05-08 19:12 | 37.21296 | 22.53220 | 37137 ft | 501 kts | 147° |
| 2026-05-08 19:13 | 37.16763 | 22.57744 | 37141 ft | 500 kts | 147° |
| 2026-05-08 19:13 | 37.11330 | 22.63141 | 37018 ft | 494 kts | 147° |
| 2026-05-08 19:14 | 37.05919 | 22.68517 | 37083 ft | 499 kts | 147° |
| 2026-05-08 19:14 | 37.03170 | 22.71244 | 36387 ft | 509 kts | 147° |
| 2026-05-08 19:14 | 37.00375 | 22.74015 | 35409 ft | 516 kts | 147° |
| 2026-05-08 19:14 | 36.97546 | 22.76821 | 34417 ft | 521 kts | 146° |
| 2026-05-08 19:15 | 36.94691 | 22.79654 | 33420 ft | 525 kts | 146° |
| 2026-05-08 19:15 | 36.91823 | 22.82500 | 32424 ft | 528 kts | 146° |
| 2026-05-08 19:15 | 36.88944 | 22.85354 | 31428 ft | 530 kts | 146° |
| 2026-05-08 19:15 | 36.86053 | 22.88218 | 30530 ft | 529 kts | 146° |
| 2026-05-08 19:16 | 36.83189 | 22.91053 | 29928 ft | 521 kts | 146° |
| 2026-05-08 19:16 | 36.80360 | 22.93851 | 29196 ft | 516 kts | 146° |
| 2026-05-08 19:16 | 36.77558 | 22.96617 | 28527 ft | 511 kts | 146° |
| 2026-05-08 19:16 | 36.74780 | 22.99354 | 27845 ft | 506 kts | 146° |
| 2026-05-08 19:17 | 36.72034 | 23.02056 | 27207 ft | 500 kts | 146° |
| 2026-05-08 19:17 | 36.69318 | 23.04724 | 26528 ft | 495 kts | 146° |
| 2026-05-08 19:17 | 36.66632 | 23.07363 | 25889 ft | 489 kts | 146° |
| 2026-05-08 19:17 | 36.63968 | 23.09977 | 25221 ft | 485 kts | 146° |
| 2026-05-08 19:18 | 36.61328 | 23.12564 | 24580 ft | 480 kts | 146° |
| 2026-05-08 19:18 | 36.58713 | 23.15126 | 23926 ft | 475 kts | 146° |
| 2026-05-08 19:18 | 36.56160 | 23.17623 | 23321 ft | 470 kts | 146° |
| 2026-05-08 19:18 | 36.53601 | 23.20126 | 22766 ft | 464 kts | 146° |
| 2026-05-08 19:19 | 36.51081 | 23.22589 | 22178 ft | 459 kts | 146° |
| 2026-05-08 19:19 | 36.48550 | 23.25060 | 21592 ft | 454 kts | 146° |
| 2026-05-08 19:19 | 36.46111 | 23.27439 | 21024 ft | 449 kts | 146° |
| 2026-05-08 19:19 | 36.43664 | 23.29823 | 20463 ft | 444 kts | 146° |
| 2026-05-08 19:20 | 36.41250 | 23.32173 | 19889 ft | 439 kts | 146° |
| 2026-05-08 19:20 | 36.39657 | 23.33723 | 19522 ft | 436 kts | 146° |
| 2026-05-08 19:20 | 36.36478 | 23.36815 | 18759 ft | 430 kts | 146° |
| 2026-05-08 19:20 | 36.34134 | 23.39092 | 18214 ft | 426 kts | 146° |
| 2026-05-08 19:21 | 36.31816 | 23.41341 | 17650 ft | 422 kts | 146° |
| 2026-05-08 19:21 | 36.29511 | 23.43577 | 17083 ft | 418 kts | 146° |
| 2026-05-08 19:21 | 36.27213 | 23.45750 | 16483 ft | 413 kts | 150° |
| 2026-05-08 19:21 | 36.24610 | 23.47221 | 16136 ft | 410 kts | 168° |
| 2026-05-08 19:22 | 36.21860 | 23.48045 | 16010 ft | 405 kts | 173° |
| 2026-05-08 19:22 | 36.19102 | 23.48687 | 15546 ft | 401 kts | 175° |
| 2026-05-08 19:22 | 36.16373 | 23.49262 | 15083 ft | 396 kts | 176° |
| 2026-05-08 19:22 | 36.13670 | 23.49812 | 14626 ft | 393 kts | 176° |
| 2026-05-08 19:23 | 36.10975 | 23.50355 | 14164 ft | 390 kts | 176° |
| 2026-05-08 19:23 | 36.08342 | 23.50883 | 13707 ft | 386 kts | 176° |
| 2026-05-08 19:23 | 36.05698 | 23.51412 | 13250 ft | 383 kts | 177° |
| 2026-05-08 19:23 | 36.03069 | 23.51938 | 12792 ft | 380 kts | 177° |
| 2026-05-08 19:24 | 36.00469 | 23.52457 | 12359 ft | 376 kts | 177° |
| 2026-05-08 19:24 | 35.97933 | 23.52967 | 12210 ft | 361 kts | 177° |
| 2026-05-08 19:24 | 35.95554 | 23.53456 | 12139 ft | 329 kts | 178° |
| 2026-05-08 19:24 | 35.93397 | 23.53903 | 12116 ft | 302 kts | 179° |
| 2026-05-08 19:25 | 35.91354 | 23.54311 | 12089 ft | 296 kts | 179° |
| 2026-05-08 19:25 | 35.89322 | 23.54698 | 12002 ft | 294 kts | 180° |
| 2026-05-08 19:25 | 35.87301 | 23.55071 | 11906 ft | 293 kts | 180° |
| 2026-05-08 19:25 | 35.85289 | 23.55458 | 11734 ft | 293 kts | 179° |
| 2026-05-08 19:26 | 35.83279 | 23.55868 | 11352 ft | 291 kts | 178° |
| 2026-05-08 19:26 | 35.81289 | 23.56279 | 10961 ft | 289 kts | 177° |
| 2026-05-08 19:26 | 35.79306 | 23.56686 | 10631 ft | 288 kts | 176° |
| 2026-05-08 19:26 | 35.77339 | 23.57085 | 10316 ft | 286 kts | 176° |
| 2026-05-08 19:27 | 35.75386 | 23.57480 | 10003 ft | 284 kts | 175° |
| 2026-05-08 19:27 | 35.73472 | 23.58101 | 9474 ft | 288 kts | 158° |
| 2026-05-08 19:27 | 35.71849 | 23.59511 | 9085 ft | 288 kts | 136° |
| 2026-05-08 19:27 | 35.70738 | 23.61570 | 8758 ft | 291 kts | 117° |
| 2026-05-08 19:28 | 35.70016 | 23.63897 | 8360 ft | 291 kts | 111° |
| 2026-05-08 19:28 | 35.69363 | 23.66250 | 7972 ft | 289 kts | 112° |
| 2026-05-08 19:28 | 35.68643 | 23.68541 | 7627 ft | 287 kts | 115° |
| 2026-05-08 19:28 | 35.67865 | 23.70789 | 7282 ft | 283 kts | 116° |
| 2026-05-08 19:29 | 35.67093 | 23.72975 | 6939 ft | 281 kts | 116° |
| 2026-05-08 19:29 | 35.66326 | 23.75177 | 6594 ft | 279 kts | 116° |
| 2026-05-08 19:29 | 35.65571 | 23.77374 | 6245 ft | 277 kts | 115° |
| 2026-05-08 19:29 | 35.64826 | 23.79548 | 5902 ft | 274 kts | 115° |
| 2026-05-08 19:30 | 35.64086 | 23.81700 | 5563 ft | 272 kts | 115° |
| 2026-05-08 19:30 | 35.63372 | 23.83792 | 5370 ft | 257 kts | 115° |
| 2026-05-08 19:30 | 35.62719 | 23.85790 | 5159 ft | 247 kts | 114° |
| 2026-05-08 19:30 | 35.62099 | 23.87729 | 4864 ft | 241 kts | 114° |
| 2026-05-08 19:31 | 35.61481 | 23.89646 | 4570 ft | 248 kts | 114° |
| 2026-05-08 19:31 | 35.60818 | 23.91680 | 4285 ft | 265 kts | 114° |
| 2026-05-08 19:31 | 35.60347 | 23.93780 | 4087 ft | 244 kts | 95° |
| 2026-05-08 19:31 | 35.60534 | 23.95693 | 4106 ft | 207 kts | 86° |
| 2026-05-08 19:32 | 35.60299 | 23.97270 | 4007 ft | 179 kts | 120° |
| 2026-05-08 19:32 | 35.59641 | 23.98542 | 4072 ft | 174 kts | 129° |
| 2026-05-08 19:32 | 35.58943 | 23.99711 | 4025 ft | 164 kts | 130° |
| 2026-05-08 19:32 | 35.58286 | 24.00789 | 3958 ft | 154 kts | 130° |
| 2026-05-08 19:33 | 35.57639 | 24.01915 | 3337 ft | 170 kts | 126° |
| 2026-05-08 19:33 | 35.57063 | 24.03238 | 2680 ft | 178 kts | 117° |
| 2026-05-08 19:33 | 35.56675 | 24.04691 | 2063 ft | 181 kts | 108° |
| 2026-05-08 19:33 | 35.56339 | 24.06175 | 1596 ft | 175 kts | 109° |
| 2026-05-08 19:34 | 35.55902 | 24.07477 | 1382 ft | 154 kts | 116° |
| 2026-05-08 19:34 | 35.55463 | 24.08663 | 1179 ft | 153 kts | 115° |
| 2026-05-08 19:34 | 35.55034 | 24.09833 | 1007 ft | 149 kts | 115° |
| 2026-05-08 19:34 | 35.54650 | 24.11032 | 925 ft | 151 kts | 110° |
| 2026-05-08 19:35 | 35.54256 | 24.12194 | 769 ft | 145 kts | 116° |
| 2026-05-08 19:35 | 35.53870 | 24.13282 | 532 ft | 136 kts | 113° |
| 2026-05-08 19:35 | 35.53533 | 24.14274 | 450 ft | 103 kts | 114° |
| 2026-05-08 19:35 | 35.53311 | 24.14901 | 450 ft | 62 kts | 114° |
| 2026-05-08 19:36 | 35.53218 | 24.15169 | 450 ft | 17 kts | 107° |
| 2026-05-08 19:36 | 35.53271 | 24.15273 | 450 ft | 17 kts | 27° |
| 2026-05-08 19:36 | 35.53367 | 24.15248 | 450 ft | 16 kts | 304° |
| 2026-05-08 19:36 | 35.53428 | 24.15089 | 450 ft | 25 kts | 292° |
| 2026-05-08 19:37 | 35.53511 | 24.14850 | 450 ft | 34 kts | 293° |
| 2026-05-08 19:37 | 35.53582 | 24.14641 | 450 ft | 13 kts | 292° |
| 2026-05-08 19:37 | 35.53629 | 24.14508 | 450 ft | 22 kts | 293° |
| 2026-05-08 19:37 | 35.53692 | 24.14333 | 450 ft | 19 kts | 295° |
| 2026-05-08 19:38 | 35.53749 | 24.14311 | 450 ft | 4 kts | 29° |
| 2026-05-08 19:38 | 35.53770 | 24.14325 | 450 ft | 0 kts | 29° |